This is the latest recevied weather packets stored in our database for station/object KT1D-13. If no packets are shown the sender has not sent any weather packets the latest 10 day(s).
| Time | Temp. | Humidity | Pressure | Rain* | Wind** | Luminosity | Snow |
|---|---|---|---|---|---|---|---|
| 1777877143 | 6.67° C | 63% | 1009.8 hPa | 0 mm | - | 0 W/m² | - |
| 1777875943 | 6.11° C | 64% | 1009.8 hPa | 0 mm | - | 0 W/m² | - |
| 1777872923 | 6.11° C | 62% | 1009.9 hPa | 0 mm | - | 0 W/m² | - |
| 1777872344 | 5.56° C | 62% | 1009.9 hPa | 0 mm | - | 0 W/m² | - |
| 1777868724 | 4.44° C | 65% | 1009.7 hPa | 0 mm | - | 0 W/m² | - |
| 1777868125 | 4.44° C | 65% | 1009.8 hPa | 0 mm | - | 0 W/m² | - |
| 1777866925 | 4.44° C | 66% | 1009.6 hPa | 0 mm | - | 0 W/m² | - |
| 1777866325 | 5° C | 64% | 1009.5 hPa | 0 mm | - | 0 W/m² | - |
| 1777864526 | 5° C | 61% | 1009.5 hPa | 0 mm | - | 0 W/m² | - |
| 1777860347 | 4.44° C | 64% | 1009.2 hPa | 0 mm | - | 0 W/m² | - |
| 1777856128 | 6.67° C | 58% | 1008.7 hPa | 0 mm | - | 0 W/m² | - |
| 1777855528 | 7.22° C | 57% | 1008.6 hPa | 0 mm | - | 0 W/m² | - |
| 1777854329 | 8.33° C | 51% | 1008.4 hPa | 0 mm | - | 0 W/m² | - |
| 1777849541 | 10.56° C | 41% | 1007.4 hPa | 0 mm | - | 43 W/m² | - |
| 1777847118 | 11.11° C | 40% | 1006.9 hPa | 0 mm | - | 73 W/m² | - |
| 1777843519 | 11.11° C | 41% | 1006 hPa | 0 mm | - | 162 W/m² | - |
| 1777839922 | 11.67° C | 41% | 1005.4 hPa | 0 mm | - | 284 W/m² | - |
| 1777835717 | 11.11° C | 47% | 1005.5 hPa | 0 mm | - | 185 W/m² | - |
| 1777829117 | 10.56° C | 53% | 1005.6 hPa | 0 mm | - | 479 W/m² | - |
| 1777828518 | 10° C | 52% | 1005.6 hPa | 0 mm | - | 502 W/m² | - |
| 1777826738 | 8.89° C | 56% | 1005.6 hPa | 0 mm | - | 310 W/m² | - |
| 1777826118 | 8.33° C | 58% | 1005.6 hPa | 0 mm | - | 246 W/m² | - |
| 1777815317 | 5.56° C | 87% | 1006 hPa | 0 mm | - | 125 W/m² | - |
| 1777812921 | 6.67° C | 80% | 1006 hPa | 0 mm | - | 133 W/m² | - |
| 1777806924 | 5.56° C | 81% | 1006.5 hPa | 0 mm | - | 56 W/m² | - |
* Rain latest hour (hover to see other rain measurements)
** Current wind speed in m/s (hover to see current wind gust speed)